Portada
METAR-TAF:

METAR-TAF

Aeroports :

Nova Delhi, Índia

latitud: 28-34N, longitud: 077-07E, altitud: 220 m

Observació

L'informe es va fer fa 14 minuts, a les 16:30 UTC
Vent calma
Temperatura 18°C
Humitat 49%
Pressió 1014 hPa
Visibilitat: 2500 m
calitja

METAR: VIDP 181630Z 00000KT 2500 HZ NSC 18/07 Q1014 NOSIG

Hora: 22:14 (16:44 UTC)

Pronòstic

L'informe es va fer fa 2 hores i 44 minuts, a les 14:00 UTC
Pronòstic vàlid del 18 a les 15 UTC al 18 a les 24 UTC
Vent 4 kt del Oest/Sud-Oest
Visibilitat: 3000 m
Escasses núvols a una alçada de 10000 ft
calitja
Evolucionant progressivament
l' 18 a les 20 UTC al 18 a les 22 UTC
Visibilitat: 2000 m
calitja, boirina

TAF: VIDP 181400Z 1815/1824 25004KT 3000 HZ FEW100 BECMG 1820/1822 2000 HZ BR

Observacions i pronòstics meteorològics de més de 4000 aeroports (METAR i TAF).

Les estacions disponibles són els punts grocs i vermells al mapa.

Posi el ratolí al punt desitjat per veure el nom de l'estació.

Feu clic per veure les observacions i els pronòstics meteorològics.

Per canviar el mapa: feu clic els botons verds amb una creu de color negre per apropar; al botó verd amb un guió per allunyar la imatge; o en les fletxes verdes per a mapes adjacents.


METAR-TAF: